createdAt,value
2023-02-20T00:00:50.444Z,51.75
2023-02-20T00:03:31.453Z,51.01
2023-02-20T00:06:09.761Z,51.02
2023-02-20T00:08:39.473Z,51.37
2023-02-20T00:11:09.352Z,50.17
2023-02-20T00:13:38.930Z,51.02
2023-02-20T00:16:08.814Z,49.90
2023-02-20T00:18:39.771Z,50.65
2023-02-20T00:21:09.114Z,50.09
2023-02-20T00:23:38.695Z,51.35
2023-02-20T00:26:11.809Z,50.21
2023-02-20T00:28:43.097Z,52.01
2023-02-20T00:31:16.148Z,50.78
2023-02-20T00:33:47.286Z,51.07
2023-02-20T00:36:19.632Z,50.09
2023-02-20T00:38:49.466Z,50.74
2023-02-20T00:41:18.882Z,51.96
2023-02-20T00:43:48.507Z,50.95
2023-02-20T00:46:18.914Z,51.00
2023-02-20T00:48:51.003Z,50.14
2023-02-20T00:51:52.721Z,49.37
2023-02-20T00:54:22.248Z,50.54
2023-02-20T00:56:51.499Z,51.73
2023-02-20T00:59:21.066Z,49.71
2023-02-20T01:01:50.303Z,50.05
2023-02-20T01:04:21.392Z,50.61
2023-02-20T01:06:50.541Z,50.60
2023-02-20T01:09:20.217Z,49.29
2023-02-20T01:11:50.914Z,48.61
2023-02-20T01:14:20.410Z,49.69
2023-02-20T01:16:52.434Z,49.52
2023-02-20T01:19:24.728Z,49.81
2023-02-20T01:21:55.455Z,49.36
2023-02-20T01:24:24.989Z,49.30
2023-02-20T01:26:54.348Z,47.92
2023-02-20T01:29:23.775Z,49.82
2023-02-20T01:31:54.684Z,48.96
2023-02-20T01:34:25.672Z,50.47
2023-02-20T01:36:56.240Z,49.67
2023-02-20T01:39:31.130Z,49.50
2023-02-20T01:42:02.341Z,50.06
2023-02-20T01:44:35.299Z,48.08
2023-02-20T01:47:08.308Z,48.53
2023-02-20T01:49:46.051Z,48.29
2023-02-20T01:52:20.333Z,49.78
2023-02-20T01:54:56.811Z,49.43
2023-02-20T01:57:29.266Z,48.25
2023-02-20T02:00:02.590Z,49.23
2023-02-20T02:02:36.527Z,49.59
2023-02-20T02:05:09.017Z,50.21
2023-02-20T02:07:38.513Z,51.08
2023-02-20T02:10:10.834Z,49.77
2023-02-20T02:12:40.675Z,48.12
2023-02-20T02:15:15.687Z,50.02
2023-02-20T02:18:08.069Z,48.74
2023-02-20T02:21:23.571Z,51.08
2023-02-20T02:24:37.845Z,49.31
2023-02-20T02:27:40.571Z,51.12
2023-02-20T02:30:44.849Z,50.69
2023-02-20T02:33:57.175Z,50.56
2023-02-20T02:36:51.429Z,50.94
2023-02-20T02:39:32.684Z,51.56
2023-02-20T02:42:10.371Z,51.46
2023-02-20T02:44:49.042Z,51.04
2023-02-20T02:47:24.630Z,51.00
2023-02-20T02:50:01.944Z,51.48
2023-02-20T02:52:46.765Z,51.19
2023-02-20T02:55:19.480Z,50.79
2023-02-20T02:57:49.235Z,50.09
2023-02-20T03:00:23.287Z,50.01
2023-02-20T03:02:59.962Z,51.37
2023-02-20T03:05:41.049Z,49.69
2023-02-20T03:08:22.479Z,49.90
2023-02-20T03:10:54.418Z,51.32
2023-02-20T03:13:47.931Z,51.07
2023-02-20T03:16:20.587Z,51.76
2023-02-20T03:18:52.127Z,53.57
2023-02-20T03:21:25.161Z,51.56
2023-02-20T03:24:00.366Z,52.80
2023-02-20T03:26:34.981Z,53.82
2023-02-20T03:29:13.798Z,55.57
2023-02-20T03:37:09.362Z,54.21
2023-02-20T03:40:02.652Z,54.59
2023-02-20T03:42:54.064Z,54.22
2023-02-20T03:45:32.669Z,53.29
2023-02-20T03:48:09.014Z,53.56
2023-02-20T03:50:55.755Z,53.35
2023-02-20T03:53:28.649Z,54.76
2023-02-20T03:56:04.630Z,54.63
2023-02-20T03:58:38.517Z,54.86
2023-02-20T04:01:09.887Z,55.30
2023-02-20T04:03:45.689Z,56.49
2023-02-20T04:06:18.443Z,54.32
2023-02-20T04:08:55.486Z,53.51
2023-02-20T04:11:29.325Z,54.61
2023-02-20T04:14:00.648Z,57.44
2023-02-20T04:16:33.864Z,54.24
2023-02-20T04:19:04.902Z,54.82
2023-02-20T04:21:41.086Z,56.25
2023-02-20T04:24:15.728Z,54.66
2023-02-20T04:26:47.223Z,54.24
2023-02-20T04:29:17.034Z,54.01
2023-02-20T04:31:46.396Z,52.03
2023-02-20T04:34:16.813Z,52.01
2023-02-20T04:36:46.503Z,53.47
2023-02-20T04:39:17.255Z,54.97
2023-02-20T04:41:48.046Z,54.05
2023-02-20T04:44:33.857Z,53.75
2023-02-20T04:47:08.186Z,54.51
2023-02-20T04:49:38.623Z,54.86
2023-02-20T04:52:09.871Z,54.05
2023-02-20T04:54:40.183Z,54.31
2023-02-20T04:57:13.212Z,52.22
2023-02-20T04:59:43.405Z,52.49
2023-02-20T05:02:13.620Z,53.96
2023-02-20T05:04:43.354Z,53.75
2023-02-20T05:07:12.532Z,52.88
2023-02-20T05:09:45.232Z,53.06
2023-02-20T05:12:15.914Z,52.77
2023-02-20T05:14:45.423Z,52.87
2023-02-20T05:17:14.757Z,52.75
2023-02-20T05:19:44.335Z,54.02
2023-02-20T05:22:22.872Z,55.77
2023-02-20T05:24:53.110Z,54.40
2023-02-20T05:27:24.589Z,55.35
2023-02-20T05:29:55.722Z,55.08
2023-02-20T05:32:26.916Z,53.69
2023-02-20T05:34:57.013Z,52.73
2023-02-20T05:37:28.202Z,56.02
2023-02-20T05:39:57.659Z,54.36
2023-02-20T05:42:28.321Z,55.78
2023-02-20T05:44:57.916Z,55.45
2023-02-20T05:47:27.195Z,54.78
2023-02-20T05:49:56.729Z,54.39
2023-02-20T05:52:25.860Z,56.19
2023-02-20T05:54:55.658Z,56.50
2023-02-20T05:57:25.326Z,57.08
2023-02-20T05:59:56.737Z,56.17
2023-02-20T06:02:33.879Z,57.47
2023-02-20T06:05:03.412Z,56.51
2023-02-20T06:07:32.956Z,56.64
2023-02-20T06:10:02.445Z,57.70
2023-02-20T06:12:31.722Z,58.11
2023-02-20T06:15:02.962Z,57.93
2023-02-20T06:17:34.041Z,58.85
2023-02-20T06:20:11.558Z,57.39
2023-02-20T06:22:40.972Z,58.70
2023-02-20T06:25:11.559Z,57.86
2023-02-20T06:27:41.706Z,58.39
2023-02-20T06:30:14.129Z,57.20
2023-02-20T06:32:43.346Z,59.21
2023-02-20T07:13:58.024Z,59.85
2023-02-20T07:17:01.901Z,60.58
2023-02-20T07:20:05.840Z,60.23
2023-02-20T07:23:08.829Z,63.56
2023-02-20T07:25:52.383Z,63.62
2023-02-20T07:28:22.831Z,59.99
2023-02-20T07:30:52.439Z,61.77
2023-02-20T07:33:23.555Z,62.93
2023-02-20T07:35:52.843Z,63.36
2023-02-20T07:38:22.304Z,62.13
2023-02-20T07:40:51.587Z,63.20
2023-02-20T07:43:21.113Z,61.58
2023-02-20T07:45:53.076Z,62.84
2023-02-20T07:48:24.204Z,61.42
2023-02-20T07:50:53.522Z,61.44
2023-02-20T07:53:23.653Z,60.61
2023-02-20T07:55:52.909Z,61.23
2023-02-20T07:58:23.021Z,61.68
2023-02-20T08:00:54.159Z,61.50
2023-02-20T08:03:25.048Z,62.23
2023-02-20T08:05:54.484Z,62.25
2023-02-20T08:08:25.657Z,62.52
2023-02-20T08:11:03.623Z,61.93
2023-02-20T08:13:37.762Z,62.64
2023-02-20T08:16:07.427Z,63.35
2023-02-20T08:18:38.806Z,62.72
2023-02-20T08:21:08.215Z,63.90
2023-02-20T08:23:39.144Z,62.50
2023-02-20T08:26:08.899Z,62.46
2023-02-20T08:28:39.098Z,64.26
2023-02-20T08:31:08.658Z,62.04
2023-02-20T08:33:39.838Z,63.74
2023-02-20T08:36:09.888Z,62.69
2023-02-20T08:38:40.483Z,64.24
2023-02-20T08:41:11.944Z,64.50
2023-02-20T08:43:43.525Z,64.00
2023-02-20T08:46:13.885Z,63.35
2023-02-20T08:48:45.907Z,62.87
2023-02-20T08:51:19.574Z,62.68
2023-02-20T08:53:49.282Z,61.57
2023-02-20T08:56:20.938Z,62.05
2023-02-20T08:58:50.577Z,62.93
2023-02-20T09:01:19.992Z,59.76
2023-02-20T09:03:51.559Z,61.64
2023-02-20T09:06:20.906Z,60.60
2023-02-20T09:08:50.425Z,60.87
2023-02-20T09:11:19.790Z,61.89
2023-02-20T09:13:59.766Z,61.10
2023-02-20T09:16:30.076Z,63.44
2023-02-20T09:19:01.226Z,61.15
2023-02-20T09:21:30.477Z,61.86
2023-02-20T09:24:00.059Z,62.45
2023-02-20T09:26:29.313Z,62.82
2023-02-20T09:28:58.997Z,61.07
2023-02-20T09:31:28.487Z,62.44
2023-02-20T09:33:59.410Z,62.73
2023-02-20T09:36:29.368Z,61.73
2023-02-20T09:38:59.008Z,60.79
2023-02-20T09:41:39.480Z,61.15
2023-02-20T09:44:15.096Z,61.16
2023-02-20T09:46:49.744Z,61.89
2023-02-20T09:49:25.179Z,61.12
2023-02-20T09:51:58.634Z,58.75
2023-02-20T09:54:33.128Z,59.53
2023-02-20T09:57:04.886Z,60.19
2023-02-20T09:59:39.844Z,60.54
2023-02-20T10:02:17.629Z,58.02
2023-02-20T10:05:00.866Z,58.83
2023-02-20T10:07:33.521Z,58.97
2023-02-20T10:10:18.287Z,60.48
2023-02-20T15:04:28.297Z,63.31
2023-02-20T16:33:43.175Z,60.33
2023-02-20T16:41:15.700Z,58.60
2023-02-20T16:49:00.885Z,58.33
2023-02-20T17:16:50.882Z,56.03
2023-02-20T17:33:54.144Z,52.54
2023-02-20T17:36:23.347Z,52.95
2023-02-20T17:38:52.825Z,52.89
2023-02-20T17:41:22.029Z,52.95
2023-02-20T17:43:51.599Z,52.38
2023-02-20T17:46:21.828Z,52.00
2023-02-20T17:48:51.478Z,52.25
2023-02-20T17:51:22.913Z,51.93
2023-02-20T17:53:52.457Z,50.76
2023-02-20T17:56:22.638Z,50.84
2023-02-20T17:58:52.949Z,51.94
2023-02-20T18:01:27.409Z,51.32
2023-02-20T18:03:57.264Z,50.49
2023-02-20T18:06:28.166Z,50.84
2023-02-20T18:08:58.061Z,50.97
2023-02-20T18:11:28.520Z,50.75
2023-02-20T18:13:59.522Z,51.90
2023-02-20T18:16:30.126Z,50.96
2023-02-20T18:19:00.376Z,51.05
2023-02-20T18:21:32.303Z,50.57
2023-02-20T18:24:04.637Z,50.10
2023-02-20T18:26:33.929Z,50.49
2023-02-20T18:29:03.702Z,50.51
2023-02-20T18:31:33.197Z,51.30
2023-02-20T18:34:03.732Z,50.79
2023-02-20T18:36:34.528Z,50.99
2023-02-20T18:39:05.305Z,51.02
2023-02-20T18:41:37.626Z,50.19
2023-02-20T18:44:07.553Z,50.44
2023-02-20T18:46:39.827Z,50.53
2023-02-20T18:49:09.726Z,49.56
2023-02-20T18:51:42.149Z,49.76
2023-02-20T18:54:16.982Z,50.53
2023-02-20T18:56:48.743Z,49.77
2023-02-20T18:59:19.370Z,49.55
2023-02-20T19:01:48.960Z,50.16
2023-02-20T19:04:18.566Z,50.70
2023-02-20T19:06:50.715Z,49.41
2023-02-20T19:09:21.756Z,50.80
2023-02-20T19:11:51.861Z,48.84
2023-02-20T19:14:23.202Z,49.33
2023-02-20T19:16:53.541Z,49.74
2023-02-20T19:19:26.103Z,49.91
2023-02-20T19:21:57.578Z,49.51
2023-02-20T19:24:27.538Z,49.46
2023-02-20T19:26:56.822Z,50.28
2023-02-20T19:29:26.646Z,49.19
2023-02-20T19:31:56.554Z,49.04
2023-02-20T19:34:26.085Z,49.67
2023-02-20T19:36:56.670Z,49.73
2023-02-20T19:39:26.602Z,49.25
2023-02-20T19:41:55.873Z,48.46
2023-02-20T19:44:25.574Z,49.74
2023-02-20T19:46:55.841Z,48.61
2023-02-20T19:49:25.609Z,48.06
2023-02-20T19:51:57.176Z,50.38
2023-02-20T19:54:29.176Z,49.01
2023-02-20T19:57:01.114Z,49.97
2023-02-20T19:59:32.007Z,48.09
2023-02-20T20:02:12.564Z,48.63
2023-02-20T20:04:45.141Z,48.94
2023-02-20T20:07:15.992Z,48.55
2023-02-20T20:09:46.156Z,48.56
2023-02-20T20:12:33.384Z,49.16
2023-02-20T20:15:05.866Z,48.24
2023-02-20T20:17:35.606Z,48.37
2023-02-20T20:20:06.882Z,47.85
2023-02-20T20:22:37.423Z,46.69
2023-02-20T20:25:10.640Z,47.62
2023-02-20T20:27:42.155Z,46.30
2023-02-20T20:30:17.768Z,47.14
2023-02-20T20:32:50.428Z,46.93
2023-02-20T20:35:21.555Z,47.76
2023-02-20T20:37:53.747Z,48.35
2023-02-20T20:40:23.977Z,49.24
2023-02-20T20:42:53.997Z,50.15
2023-02-20T20:45:24.613Z,49.74
2023-02-20T20:47:54.261Z,49.11
2023-02-20T20:50:27.794Z,50.02
2023-02-20T20:53:01.002Z,49.95
2023-02-20T20:55:31.215Z,50.73
2023-02-20T20:58:00.546Z,48.85
2023-02-20T21:00:31.906Z,49.95
2023-02-20T21:03:01.112Z,49.10
2023-02-20T21:05:33.795Z,47.88
2023-02-20T21:08:05.937Z,49.55
2023-02-20T21:10:36.376Z,50.11
2023-02-20T21:13:05.934Z,48.76
2023-02-20T21:15:35.715Z,48.26
2023-02-20T21:18:05.884Z,49.62
2023-02-20T21:20:36.200Z,50.05
2023-02-20T21:23:06.929Z,49.67
2023-02-20T21:25:36.522Z,49.57
2023-02-20T21:28:06.228Z,48.80
2023-02-20T21:30:35.774Z,49.69
2023-02-20T21:33:07.451Z,48.76
2023-02-20T21:35:37.023Z,48.57
2023-02-20T21:38:08.096Z,48.35
2023-02-20T21:40:37.894Z,48.58
2023-02-20T21:43:24.368Z,48.99
2023-02-20T21:45:53.863Z,49.23
2023-02-20T21:48:23.158Z,49.78
2023-02-20T21:50:52.595Z,49.57
2023-02-20T21:53:23.146Z,48.86
2023-02-20T21:55:52.958Z,48.69
2023-02-20T21:58:35.949Z,49.29
2023-02-20T22:01:04.298Z,50.22
2023-02-20T22:03:32.291Z,49.57
2023-02-20T22:06:00.534Z,49.42
2023-02-20T22:08:48.442Z,48.83
2023-02-20T22:11:35.172Z,49.37
2023-02-20T22:14:21.986Z,48.84
2023-02-20T22:17:09.173Z,48.50
2023-02-20T22:19:55.760Z,48.61
2023-02-20T22:22:42.989Z,49.58
2023-02-20T22:25:30.845Z,47.55
2023-02-20T22:28:17.670Z,49.38
2023-02-20T22:31:04.662Z,48.14
2023-02-20T22:33:51.647Z,47.91
2023-02-20T22:36:38.393Z,47.39
2023-02-20T22:39:25.931Z,47.84
2023-02-20T22:42:18.523Z,47.13
2023-02-20T22:45:07.896Z,47.79
2023-02-20T22:47:54.556Z,48.32
2023-02-20T22:50:41.785Z,47.60
2023-02-20T22:53:28.416Z,48.36
2023-02-20T22:56:15.380Z,48.60
2023-02-20T22:59:03.126Z,49.18
2023-02-20T23:01:49.830Z,47.62
2023-02-20T23:04:36.623Z,47.54
2023-02-20T23:07:23.145Z,48.79
2023-02-20T23:10:09.836Z,46.38
2023-02-20T23:12:56.637Z,47.14
2023-02-20T23:15:44.881Z,46.81
2023-02-20T23:18:32.432Z,47.70
2023-02-20T23:21:19.128Z,48.05
2023-02-20T23:24:06.861Z,47.35
2023-02-20T23:26:54.128Z,47.17
2023-02-20T23:29:41.596Z,48.22
2023-02-20T23:32:29.436Z,47.70
2023-02-20T23:35:16.315Z,48.37
2023-02-20T23:38:02.965Z,47.87
2023-02-20T23:40:50.262Z,46.04
2023-02-20T23:43:36.904Z,45.28
2023-02-20T23:46:24.635Z,47.55
2023-02-20T23:49:12.575Z,48.08
2023-02-20T23:52:05.194Z,47.80
2023-02-20T23:54:55.076Z,47.01
2023-02-20T23:57:41.992Z,47.87
